sensor_id;sensor_type;location;lat;lon;timestamp;temperature;humidity
1129;DHT22;553;51.038;7.216;2023-01-10T00:00:24;6.80;99.90
1129;DHT22;553;51.038;7.216;2023-01-10T00:02:51;6.70;99.90
1129;DHT22;553;51.038;7.216;2023-01-10T00:05:19;6.70;99.90
1129;DHT22;553;51.038;7.216;2023-01-10T00:07:45;6.70;99.90
1129;DHT22;553;51.038;7.216;2023-01-10T00:10:12;6.70;99.90
1129;DHT22;553;51.038;7.216;2023-01-10T00:12:39;6.80;99.90
1129;DHT22;553;51.038;7.216;2023-01-10T00:15:25;6.80;99.90
1129;DHT22;553;51.038;7.216;2023-01-10T00:17:51;6.80;99.90
1129;DHT22;553;51.038;7.216;2023-01-10T00:20:18;6.90;99.90
1129;DHT22;553;51.038;7.216;2023-01-10T00:22:45;6.90;99.90
1129;DHT22;553;51.038;7.216;2023-01-10T00:25:12;6.80;99.90
1129;DHT22;553;51.038;7.216;2023-01-10T00:27:39;6.70;99.90
1129;DHT22;553;51.038;7.216;2023-01-10T00:30:06;6.80;99.90
1129;DHT22;553;51.038;7.216;2023-01-10T00:32:43;6.80;99.90
1129;DHT22;553;51.038;7.216;2023-01-10T00:35:11;6.80;99.90
1129;DHT22;553;51.038;7.216;2023-01-10T00:37:39;6.80;99.90
1129;DHT22;553;51.038;7.216;2023-01-10T00:40:06;6.90;99.90
1129;DHT22;553;51.038;7.216;2023-01-10T00:42:35;6.80;99.90
1129;DHT22;553;51.038;7.216;2023-01-10T00:45:22;6.80;99.90
1129;DHT22;553;51.038;7.216;2023-01-10T00:47:50;6.80;99.90
1129;DHT22;553;51.038;7.216;2023-01-10T00:50:17;6.70;99.90
1129;DHT22;553;51.038;7.216;2023-01-10T00:52:44;6.70;99.90
1129;DHT22;553;51.038;7.216;2023-01-10T00:55:10;6.60;99.90
1129;DHT22;553;51.038;7.216;2023-01-10T00:57:37;6.60;99.90
1129;DHT22;553;51.038;7.216;2023-01-10T01:00:05;6.60;99.90
1129;DHT22;553;51.038;7.216;2023-01-10T01:02:34;6.70;99.90
1129;DHT22;553;51.038;7.216;2023-01-10T01:05:01;6.60;99.90
1129;DHT22;553;51.038;7.216;2023-01-10T01:07:28;6.50;99.90
1129;DHT22;553;51.038;7.216;2023-01-10T01:09:54;6.50;99.90
1129;DHT22;553;51.038;7.216;2023-01-10T01:12:40;6.40;99.90
1129;DHT22;553;51.038;7.216;2023-01-10T01:15:07;6.40;99.90
1129;DHT22;553;51.038;7.216;2023-01-10T01:17:34;6.40;99.90
1129;DHT22;553;51.038;7.216;2023-01-10T01:20:00;6.50;99.90
1129;DHT22;553;51.038;7.216;2023-01-10T01:22:27;6.50;99.90
1129;DHT22;553;51.038;7.216;2023-01-10T01:24:53;6.50;99.90
1129;DHT22;553;51.038;7.216;2023-01-10T01:27:20;6.60;99.90
1129;DHT22;553;51.038;7.216;2023-01-10T01:29:47;6.60;99.90
1129;DHT22;553;51.038;7.216;2023-01-10T01:32:13;6.60;99.90
1129;DHT22;553;51.038;7.216;2023-01-10T01:34:40;6.60;99.90
1129;DHT22;553;51.038;7.216;2023-01-10T01:37:07;6.60;99.90
1129;DHT22;553;51.038;7.216;2023-01-10T01:39:33;6.60;99.90
1129;DHT22;553;51.038;7.216;2023-01-10T01:42:01;6.60;99.90
1129;DHT22;553;51.038;7.216;2023-01-10T01:44:34;6.50;99.90
1129;DHT22;553;51.038;7.216;2023-01-10T01:47:07;6.50;99.90
1129;DHT22;553;51.038;7.216;2023-01-10T01:49:39;6.60;99.90
1129;DHT22;553;51.038;7.216;2023-01-10T01:52:12;6.50;99.90
1129;DHT22;553;51.038;7.216;2023-01-10T01:54:42;6.60;99.90
1129;DHT22;553;51.038;7.216;2023-01-10T01:57:12;6.60;99.90
1129;DHT22;553;51.038;7.216;2023-01-10T01:59:45;6.50;99.90
1129;DHT22;553;51.038;7.216;2023-01-10T02:02:17;6.50;99.90
1129;DHT22;553;51.038;7.216;2023-01-10T02:05:11;6.50;99.90
1129;DHT22;553;51.038;7.216;2023-01-10T02:07:44;6.60;99.90
1129;DHT22;553;51.038;7.216;2023-01-10T02:10:40;6.40;99.90
1129;DHT22;553;51.038;7.216;2023-01-10T02:13:12;6.40;99.90
1129;DHT22;553;51.038;7.216;2023-01-10T02:15:40;6.40;99.90
1129;DHT22;553;51.038;7.216;2023-01-10T02:18:07;6.40;99.90
1129;DHT22;553;51.038;7.216;2023-01-10T02:20:48;6.40;99.90
1129;DHT22;553;51.038;7.216;2023-01-10T02:23:42;6.40;99.90
1129;DHT22;553;51.038;7.216;2023-01-10T02:29:48;6.30;99.90
1129;DHT22;553;51.038;7.216;2023-01-10T02:32:32;6.30;99.90
1129;DHT22;553;51.038;7.216;2023-01-10T02:35:27;6.40;99.90
1129;DHT22;553;51.038;7.216;2023-01-10T02:41:36;6.50;99.90
1129;DHT22;553;51.038;7.216;2023-01-10T02:44:13;6.50;99.90
1129;DHT22;553;51.038;7.216;2023-01-10T02:46:45;6.50;99.90
1129;DHT22;553;51.038;7.216;2023-01-10T02:49:13;6.40;99.90
1129;DHT22;553;51.038;7.216;2023-01-10T02:51:40;6.40;99.90
1129;DHT22;553;51.038;7.216;2023-01-10T02:54:24;6.40;99.90
1129;DHT22;553;51.038;7.216;2023-01-10T03:02:29;6.30;99.90
1129;DHT22;553;51.038;7.216;2023-01-10T03:05:26;6.20;99.90
1129;DHT22;553;51.038;7.216;2023-01-10T03:10:57;6.20;99.90
1129;DHT22;553;51.038;7.216;2023-01-10T03:13:51;6.20;99.90
1129;DHT22;553;51.038;7.216;2023-01-10T03:16:24;6.30;99.90
1129;DHT22;553;51.038;7.216;2023-01-10T03:19:20;6.20;99.90
1129;DHT22;553;51.038;7.216;2023-01-10T03:21:50;6.20;99.90
1129;DHT22;553;51.038;7.216;2023-01-10T03:24:47;6.20;99.90
1129;DHT22;553;51.038;7.216;2023-01-10T03:27:37;6.20;99.90
1129;DHT22;553;51.038;7.216;2023-01-10T03:30:25;6.10;99.90
1129;DHT22;553;51.038;7.216;2023-01-10T03:32:55;6.20;99.90
1129;DHT22;553;51.038;7.216;2023-01-10T03:35:49;6.30;99.90
1129;DHT22;553;51.038;7.216;2023-01-10T03:38:20;6.20;99.90
1129;DHT22;553;51.038;7.216;2023-01-10T03:40:57;6.20;99.90
1129;DHT22;553;51.038;7.216;2023-01-10T03:43:50;6.10;99.90
1129;DHT22;553;51.038;7.216;2023-01-10T03:46:50;6.10;99.90
1129;DHT22;553;51.038;7.216;2023-01-10T03:49:22;6.10;99.90
1129;DHT22;553;51.038;7.216;2023-01-10T03:51:51;6.10;99.90
1129;DHT22;553;51.038;7.216;2023-01-10T03:54:18;6.20;99.90
1129;DHT22;553;51.038;7.216;2023-01-10T03:56:47;6.20;99.90
1129;DHT22;553;51.038;7.216;2023-01-10T03:59:26;6.00;99.90
1129;DHT22;553;51.038;7.216;2023-01-10T04:01:53;6.10;99.90
1129;DHT22;553;51.038;7.216;2023-01-10T04:04:21;6.10;99.90
1129;DHT22;553;51.038;7.216;2023-01-10T04:06:48;6.20;99.90
1129;DHT22;553;51.038;7.216;2023-01-10T04:09:14;6.20;99.90
1129;DHT22;553;51.038;7.216;2023-01-10T04:11:41;6.20;99.90
1129;DHT22;553;51.038;7.216;2023-01-10T04:14:07;6.10;99.90
1129;DHT22;553;51.038;7.216;2023-01-10T04:16:34;6.20;99.90
1129;DHT22;553;51.038;7.216;2023-01-10T04:19:01;6.20;99.90
1129;DHT22;553;51.038;7.216;2023-01-10T04:21:27;6.20;99.90
1129;DHT22;553;51.038;7.216;2023-01-10T04:23:54;6.20;99.90
1129;DHT22;553;51.038;7.216;2023-01-10T04:26:21;6.20;99.90
1129;DHT22;553;51.038;7.216;2023-01-10T04:28:47;6.30;99.90
1129;DHT22;553;51.038;7.216;2023-01-10T04:31:14;6.20;99.90
1129;DHT22;553;51.038;7.216;2023-01-10T04:33:41;6.20;99.90
1129;DHT22;553;51.038;7.216;2023-01-10T04:36:07;6.10;99.90
1129;DHT22;553;51.038;7.216;2023-01-10T04:38:34;6.10;99.90
1129;DHT22;553;51.038;7.216;2023-01-10T04:41:01;6.10;99.90
1129;DHT22;553;51.038;7.216;2023-01-10T04:43:27;6.10;99.90
1129;DHT22;553;51.038;7.216;2023-01-10T04:45:54;6.10;99.90
1129;DHT22;553;51.038;7.216;2023-01-10T04:48:21;6.10;99.90
1129;DHT22;553;51.038;7.216;2023-01-10T04:50:51;6.20;99.90
1129;DHT22;553;51.038;7.216;2023-01-10T04:53:19;6.10;99.90
1129;DHT22;553;51.038;7.216;2023-01-10T04:55:46;6.20;99.90
1129;DHT22;553;51.038;7.216;2023-01-10T04:58:13;6.20;99.90
1129;DHT22;553;51.038;7.216;2023-01-10T05:00:40;6.20;99.90
1129;DHT22;553;51.038;7.216;2023-01-10T05:03:06;6.20;99.90
1129;DHT22;553;51.038;7.216;2023-01-10T05:05:33;6.20;99.90
1129;DHT22;553;51.038;7.216;2023-01-10T05:08:00;6.20;99.90
1129;DHT22;553;51.038;7.216;2023-01-10T05:10:27;6.20;99.90
1129;DHT22;553;51.038;7.216;2023-01-10T05:12:54;6.30;99.90
1129;DHT22;553;51.038;7.216;2023-01-10T05:15:20;6.30;99.90
1129;DHT22;553;51.038;7.216;2023-01-10T05:17:48;6.30;99.90
1129;DHT22;553;51.038;7.216;2023-01-10T05:20:16;6.30;99.90
1129;DHT22;553;51.038;7.216;2023-01-10T05:22:43;6.30;99.90
1129;DHT22;553;51.038;7.216;2023-01-10T05:25:10;6.20;99.90
1129;DHT22;553;51.038;7.216;2023-01-10T05:27:40;6.20;99.90
1129;DHT22;553;51.038;7.216;2023-01-10T05:30:10;6.30;99.90
1129;DHT22;553;51.038;7.216;2023-01-10T05:32:37;6.50;99.90
1129;DHT22;553;51.038;7.216;2023-01-10T05:35:04;6.50;99.90
1129;DHT22;553;51.038;7.216;2023-01-10T05:37:31;6.40;99.90
1129;DHT22;553;51.038;7.216;2023-01-10T05:39:57;6.50;99.90
1129;DHT22;553;51.038;7.216;2023-01-10T05:42:24;6.40;99.90
1129;DHT22;553;51.038;7.216;2023-01-10T05:44:51;6.40;99.90
1129;DHT22;553;51.038;7.216;2023-01-10T05:47:17;6.40;99.90
1129;DHT22;553;51.038;7.216;2023-01-10T05:49:44;6.40;99.90
1129;DHT22;553;51.038;7.216;2023-01-10T05:52:11;6.40;99.90
1129;DHT22;553;51.038;7.216;2023-01-10T05:54:37;6.30;99.90
1129;DHT22;553;51.038;7.216;2023-01-10T05:57:04;6.30;99.90
1129;DHT22;553;51.038;7.216;2023-01-10T05:59:31;6.30;99.90
1129;DHT22;553;51.038;7.216;2023-01-10T06:01:57;6.30;99.90
1129;DHT22;553;51.038;7.216;2023-01-10T06:04:24;6.30;99.90
1129;DHT22;553;51.038;7.216;2023-01-10T06:06:52;6.30;99.90
1129;DHT22;553;51.038;7.216;2023-01-10T06:09:18;6.30;99.90
1129;DHT22;553;51.038;7.216;2023-01-10T06:11:45;6.30;99.90
1129;DHT22;553;51.038;7.216;2023-01-10T06:14:11;6.30;99.90
1129;DHT22;553;51.038;7.216;2023-01-10T06:16:38;6.40;99.90
1129;DHT22;553;51.038;7.216;2023-01-10T06:19:07;6.40;99.90
1129;DHT22;553;51.038;7.216;2023-01-10T06:21:34;6.40;99.90
1129;DHT22;553;51.038;7.216;2023-01-10T06:24:01;6.40;99.90
1129;DHT22;553;51.038;7.216;2023-01-10T06:26:28;6.30;99.90
1129;DHT22;553;51.038;7.216;2023-01-10T06:28:55;6.30;99.90
1129;DHT22;553;51.038;7.216;2023-01-10T06:31:24;6.20;99.90
1129;DHT22;553;51.038;7.216;2023-01-10T06:33:51;6.20;99.90
1129;DHT22;553;51.038;7.216;2023-01-10T06:36:18;6.20;99.90
1129;DHT22;553;51.038;7.216;2023-01-10T06:38:45;6.20;99.90
1129;DHT22;553;51.038;7.216;2023-01-10T06:41:12;6.20;99.90
1129;DHT22;553;51.038;7.216;2023-01-10T06:43:43;6.10;99.90
1129;DHT22;553;51.038;7.216;2023-01-10T06:46:15;6.20;99.90
1129;DHT22;553;51.038;7.216;2023-01-10T06:48:43;6.20;99.90
1129;DHT22;553;51.038;7.216;2023-01-10T06:51:12;6.10;99.90
1129;DHT22;553;51.038;7.216;2023-01-10T06:53:39;6.10;99.90
1129;DHT22;553;51.038;7.216;2023-01-10T06:56:06;6.10;99.90
1129;DHT22;553;51.038;7.216;2023-01-10T06:58:32;6.10;99.90
1129;DHT22;553;51.038;7.216;2023-01-10T07:01:00;6.10;99.90
1129;DHT22;553;51.038;7.216;2023-01-10T07:03:27;6.20;99.90
1129;DHT22;553;51.038;7.216;2023-01-10T07:05:53;6.20;99.90
1129;DHT22;553;51.038;7.216;2023-01-10T07:08:20;6.20;99.90
1129;DHT22;553;51.038;7.216;2023-01-10T07:10:47;6.20;99.90
1129;DHT22;553;51.038;7.216;2023-01-10T07:13:13;6.30;99.90
1129;DHT22;553;51.038;7.216;2023-01-10T07:15:40;6.40;99.90
1129;DHT22;553;51.038;7.216;2023-01-10T07:18:06;6.30;99.90
1129;DHT22;553;51.038;7.216;2023-01-10T07:20:34;6.20;99.90
1129;DHT22;553;51.038;7.216;2023-01-10T07:23:01;6.20;99.90
1129;DHT22;553;51.038;7.216;2023-01-10T07:25:28;6.30;99.90
1129;DHT22;553;51.038;7.216;2023-01-10T07:27:55;6.30;99.90
1129;DHT22;553;51.038;7.216;2023-01-10T07:30:23;6.20;99.90
1129;DHT22;553;51.038;7.216;2023-01-10T07:32:57;6.30;99.90
1129;DHT22;553;51.038;7.216;2023-01-10T07:35:24;6.30;99.90
1129;DHT22;553;51.038;7.216;2023-01-10T07:37:51;6.30;99.90
1129;DHT22;553;51.038;7.216;2023-01-10T07:40:18;6.30;99.90
1129;DHT22;553;51.038;7.216;2023-01-10T07:42:44;6.30;99.90
1129;DHT22;553;51.038;7.216;2023-01-10T07:45:11;6.30;99.90
1129;DHT22;553;51.038;7.216;2023-01-10T07:47:38;6.30;99.90
1129;DHT22;553;51.038;7.216;2023-01-10T07:50:05;6.30;99.90
1129;DHT22;553;51.038;7.216;2023-01-10T07:52:32;6.30;99.90
1129;DHT22;553;51.038;7.216;2023-01-10T07:54:59;6.30;99.90
1129;DHT22;553;51.038;7.216;2023-01-10T07:57:25;6.30;99.90
1129;DHT22;553;51.038;7.216;2023-01-10T07:59:52;6.30;99.90
1129;DHT22;553;51.038;7.216;2023-01-10T08:02:19;6.30;99.90
1129;DHT22;553;51.038;7.216;2023-01-10T08:04:45;6.30;99.90
1129;DHT22;553;51.038;7.216;2023-01-10T08:07:12;6.40;99.90
1129;DHT22;553;51.038;7.216;2023-01-10T08:09:39;6.30;99.90
1129;DHT22;553;51.038;7.216;2023-01-10T08:12:05;6.40;99.90
1129;DHT22;553;51.038;7.216;2023-01-10T08:14:32;6.40;99.90
1129;DHT22;553;51.038;7.216;2023-01-10T08:16:59;6.30;99.90
1129;DHT22;553;51.038;7.216;2023-01-10T08:19:26;6.30;99.90
1129;DHT22;553;51.038;7.216;2023-01-10T08:21:53;6.40;99.90
1129;DHT22;553;51.038;7.216;2023-01-10T08:24:20;6.40;99.90
1129;DHT22;553;51.038;7.216;2023-01-10T08:26:47;6.40;99.90
1129;DHT22;553;51.038;7.216;2023-01-10T08:29:14;6.40;99.90
1129;DHT22;553;51.038;7.216;2023-01-10T08:31:41;6.40;99.90
1129;DHT22;553;51.038;7.216;2023-01-10T08:34:08;6.40;99.90
1129;DHT22;553;51.038;7.216;2023-01-10T08:36:34;6.40;99.90
1129;DHT22;553;51.038;7.216;2023-01-10T08:39:01;6.50;99.90
1129;DHT22;553;51.038;7.216;2023-01-10T08:41:28;6.40;99.90
1129;DHT22;553;51.038;7.216;2023-01-10T08:43:54;6.50;99.90
1129;DHT22;553;51.038;7.216;2023-01-10T08:46:21;6.60;99.90
1129;DHT22;553;51.038;7.216;2023-01-10T08:48:48;6.60;99.90
1129;DHT22;553;51.038;7.216;2023-01-10T08:51:16;6.60;99.90
1129;DHT22;553;51.038;7.216;2023-01-10T08:53:43;6.60;99.90
1129;DHT22;553;51.038;7.216;2023-01-10T08:56:10;6.60;99.90
1129;DHT22;553;51.038;7.216;2023-01-10T08:58:37;6.70;99.90
1129;DHT22;553;51.038;7.216;2023-01-10T09:01:05;6.60;99.90
1129;DHT22;553;51.038;7.216;2023-01-10T09:03:32;6.60;99.90
1129;DHT22;553;51.038;7.216;2023-01-10T09:05:59;7.30;99.90
1129;DHT22;553;51.038;7.216;2023-01-10T09:08:26;7.10;99.90
1129;DHT22;553;51.038;7.216;2023-01-10T09:10:53;7.00;99.90
1129;DHT22;553;51.038;7.216;2023-01-10T09:13:20;7.00;99.90
1129;DHT22;553;51.038;7.216;2023-01-10T09:15:46;6.90;99.90
1129;DHT22;553;51.038;7.216;2023-01-10T09:18:13;6.80;99.90
1129;DHT22;553;51.038;7.216;2023-01-10T09:20:41;6.70;99.90
1129;DHT22;553;51.038;7.216;2023-01-10T09:23:11;6.70;99.90
1129;DHT22;553;51.038;7.216;2023-01-10T09:25:38;6.80;99.90
1129;DHT22;553;51.038;7.216;2023-01-10T09:28:05;6.80;99.90
1129;DHT22;553;51.038;7.216;2023-01-10T09:30:32;6.80;99.90
1129;DHT22;553;51.038;7.216;2023-01-10T09:32:58;6.80;99.90
1129;DHT22;553;51.038;7.216;2023-01-10T09:35:27;7.10;99.90
1129;DHT22;553;51.038;7.216;2023-01-10T09:37:55;7.00;99.90
1129;DHT22;553;51.038;7.216;2023-01-10T09:51:42;7.20;99.90
1129;DHT22;553;51.038;7.216;2023-01-10T09:54:22;7.10;99.90
1129;DHT22;553;51.038;7.216;2023-01-10T09:56:51;7.00;99.90
1129;DHT22;553;51.038;7.216;2023-01-10T09:59:21;7.00;99.90
1129;DHT22;553;51.038;7.216;2023-01-10T10:01:54;7.00;99.90
1129;DHT22;553;51.038;7.216;2023-01-10T10:04:27;7.00;99.90
1129;DHT22;553;51.038;7.216;2023-01-10T10:06:56;7.10;99.90
1129;DHT22;553;51.038;7.216;2023-01-10T10:09:25;7.10;99.90
1129;DHT22;553;51.038;7.216;2023-01-10T10:17:41;7.20;99.90
1129;DHT22;553;51.038;7.216;2023-01-10T10:20:25;7.30;99.90
1129;DHT22;553;51.038;7.216;2023-01-10T10:24:06;7.50;99.90
1129;DHT22;553;51.038;7.216;2023-01-10T10:26:01;7.60;99.90
1129;DHT22;553;51.038;7.216;2023-01-10T10:31:47;7.70;99.90
1129;DHT22;553;51.038;7.216;2023-01-10T10:34:40;7.70;99.90
1129;DHT22;553;51.038;7.216;2023-01-10T10:37:12;7.80;99.90
1129;DHT22;553;51.038;7.216;2023-01-10T10:39:44;8.00;99.90
1129;DHT22;553;51.038;7.216;2023-01-10T10:42:15;8.00;99.90
1129;DHT22;553;51.038;7.216;2023-01-10T10:44:51;8.00;99.90
1129;DHT22;553;51.038;7.216;2023-01-10T10:47:22;7.90;99.90
1129;DHT22;553;51.038;7.216;2023-01-10T10:49:54;7.90;99.90
1129;DHT22;553;51.038;7.216;2023-01-10T10:52:25;7.90;99.90
1129;DHT22;553;51.038;7.216;2023-01-10T10:54:52;8.10;99.90
1129;DHT22;553;51.038;7.216;2023-01-10T10:57:31;8.20;99.90
1129;DHT22;553;51.038;7.216;2023-01-10T11:00:01;8.20;99.90
1129;DHT22;553;51.038;7.216;2023-01-10T11:02:31;8.10;99.90
1129;DHT22;553;51.038;7.216;2023-01-10T11:05:06;8.30;99.90
1129;DHT22;553;51.038;7.216;2023-01-10T11:07:36;8.40;99.90
1129;DHT22;553;51.038;7.216;2023-01-10T11:10:10;8.50;99.90
1129;DHT22;553;51.038;7.216;2023-01-10T11:12:58;8.60;99.90
1129;DHT22;553;51.038;7.216;2023-01-10T11:15:44;8.30;99.90
1129;DHT22;553;51.038;7.216;2023-01-10T11:18:14;8.20;99.90
1129;DHT22;553;51.038;7.216;2023-01-10T11:21:04;8.50;99.60
1129;DHT22;553;51.038;7.216;2023-01-10T11:23:51;8.40;99.70
1129;DHT22;553;51.038;7.216;2023-01-10T11:26:29;8.40;99.50
1129;DHT22;553;51.038;7.216;2023-01-10T11:29:13;8.40;99.30
1129;DHT22;553;51.038;7.216;2023-01-10T11:31:41;8.30;99.90
1129;DHT22;553;51.038;7.216;2023-01-10T11:34:19;8.90;98.90
1129;DHT22;553;51.038;7.216;2023-01-10T11:37:02;8.60;98.10
1129;DHT22;553;51.038;7.216;2023-01-10T11:39:30;8.60;99.10
1129;DHT22;553;51.038;7.216;2023-01-10T11:44:50;8.20;99.90
1129;DHT22;553;51.038;7.216;2023-01-10T11:47:16;8.30;99.90
1129;DHT22;553;51.038;7.216;2023-01-10T11:49:47;8.40;99.80
1129;DHT22;553;51.038;7.216;2023-01-10T11:52:22;8.40;99.60
1129;DHT22;553;51.038;7.216;2023-01-10T11:54:52;8.20;99.80
1129;DHT22;553;51.038;7.216;2023-01-10T11:57:27;8.30;99.90
1129;DHT22;553;51.038;7.216;2023-01-10T12:00:04;8.40;99.90
1129;DHT22;553;51.038;7.216;2023-01-10T12:02:42;9.70;99.70
1129;DHT22;553;51.038;7.216;2023-01-10T12:05:18;9.40;96.10
1129;DHT22;553;51.038;7.216;2023-01-10T12:08:00;9.10;96.50
1129;DHT22;553;51.038;7.216;2023-01-10T12:10:32;8.70;97.10
1129;DHT22;553;51.038;7.216;2023-01-10T12:13:14;8.60;96.80
1129;DHT22;553;51.038;7.216;2023-01-10T12:15:41;8.70;96.90
1129;DHT22;553;51.038;7.216;2023-01-10T12:18:10;8.70;96.60
1129;DHT22;553;51.038;7.216;2023-01-10T12:20:48;8.70;96.90
1129;DHT22;553;51.038;7.216;2023-01-10T12:23:19;8.70;96.90
1129;DHT22;553;51.038;7.216;2023-01-10T12:25:47;8.60;97.50
1129;DHT22;553;51.038;7.216;2023-01-10T12:28:28;8.50;98.20
1129;DHT22;553;51.038;7.216;2023-01-10T12:30:57;8.40;98.70
1129;DHT22;553;51.038;7.216;2023-01-10T12:33:33;8.20;98.90
1129;DHT22;553;51.038;7.216;2023-01-10T12:38:42;8.20;99.40
1129;DHT22;553;51.038;7.216;2023-01-10T12:41:42;8.10;98.80
1129;DHT22;553;51.038;7.216;2023-01-10T12:44:39;8.10;98.10
1129;DHT22;553;51.038;7.216;2023-01-10T12:47:33;8.00;98.20
1129;DHT22;553;51.038;7.216;2023-01-10T12:50:16;7.90;98.80
1129;DHT22;553;51.038;7.216;2023-01-10T12:52:51;7.90;98.10
1129;DHT22;553;51.038;7.216;2023-01-10T12:55:21;8.00;98.30
1129;DHT22;553;51.038;7.216;2023-01-10T12:58:01;8.10;98.60
1129;DHT22;553;51.038;7.216;2023-01-10T13:00:33;8.20;98.40
1129;DHT22;553;51.038;7.216;2023-01-10T13:03:18;8.10;98.00
1129;DHT22;553;51.038;7.216;2023-01-10T13:05:46;8.20;97.10
1129;DHT22;553;51.038;7.216;2023-01-10T13:08:17;8.20;96.80
1129;DHT22;553;51.038;7.216;2023-01-10T13:10:47;8.30;96.90
1129;DHT22;553;51.038;7.216;2023-01-10T13:13:35;8.20;97.10
1129;DHT22;553;51.038;7.216;2023-01-10T13:16:21;8.20;97.30
1129;DHT22;553;51.038;7.216;2023-01-10T13:21:40;7.90;98.10
1129;DHT22;553;51.038;7.216;2023-01-10T13:24:22;7.80;98.30
1129;DHT22;553;51.038;7.216;2023-01-10T13:27:03;7.70;98.70
1129;DHT22;553;51.038;7.216;2023-01-10T13:29:38;7.70;99.20
1129;DHT22;553;51.038;7.216;2023-01-10T13:32:21;7.70;99.70
1129;DHT22;553;51.038;7.216;2023-01-10T13:34:49;7.60;99.50
1129;DHT22;553;51.038;7.216;2023-01-10T13:37:34;7.60;99.90
1129;DHT22;553;51.038;7.216;2023-01-10T13:40:02;7.70;99.90
1129;DHT22;553;51.038;7.216;2023-01-10T13:42:35;7.70;99.50
1129;DHT22;553;51.038;7.216;2023-01-10T13:45:21;7.70;99.70
1129;DHT22;553;51.038;7.216;2023-01-10T13:52:54;7.50;99.90
1129;DHT22;553;51.038;7.216;2023-01-10T14:01:32;7.50;99.90
1129;DHT22;553;51.038;7.216;2023-01-10T14:04:23;7.40;99.80
1129;DHT22;553;51.038;7.216;2023-01-10T14:06:55;7.40;99.90
1129;DHT22;553;51.038;7.216;2023-01-10T14:14:35;7.20;99.90
1129;DHT22;553;51.038;7.216;2023-01-10T14:17:11;7.20;99.50
1129;DHT22;553;51.038;7.216;2023-01-10T14:19:39;7.20;99.90
1129;DHT22;553;51.038;7.216;2023-01-10T14:22:23;7.10;99.70
1129;DHT22;553;51.038;7.216;2023-01-10T14:24:52;7.10;99.90
1129;DHT22;553;51.038;7.216;2023-01-10T14:27:20;7.10;99.90
1129;DHT22;553;51.038;7.216;2023-01-10T14:29:58;7.20;99.90
1129;DHT22;553;51.038;7.216;2023-01-10T14:32:38;7.20;99.80
1129;DHT22;553;51.038;7.216;2023-01-10T14:35:08;7.20;99.80
1129;DHT22;553;51.038;7.216;2023-01-10T14:37:53;7.10;99.70
1129;DHT22;553;51.038;7.216;2023-01-10T14:40:42;7.10;99.90
1129;DHT22;553;51.038;7.216;2023-01-10T14:43:14;7.00;99.90
1129;DHT22;553;51.038;7.216;2023-01-10T14:45:53;7.00;99.90
1129;DHT22;553;51.038;7.216;2023-01-10T14:48:27;7.00;99.90
1129;DHT22;553;51.038;7.216;2023-01-10T14:53:38;7.00;99.90
1129;DHT22;553;51.038;7.216;2023-01-10T14:56:29;7.00;99.90
1129;DHT22;553;51.038;7.216;2023-01-10T14:58:56;7.00;99.80
1129;DHT22;553;51.038;7.216;2023-01-10T15:01:25;7.00;99.90
1129;DHT22;553;51.038;7.216;2023-01-10T15:03:54;7.00;99.90
1129;DHT22;553;51.038;7.216;2023-01-10T15:06:23;7.10;99.80
1129;DHT22;553;51.038;7.216;2023-01-10T15:08:59;7.10;99.60
1129;DHT22;553;51.038;7.216;2023-01-10T15:11:26;7.10;99.70
1129;DHT22;553;51.038;7.216;2023-01-10T15:14:00;7.10;99.50
1129;DHT22;553;51.038;7.216;2023-01-10T15:16:29;7.00;99.80
1129;DHT22;553;51.038;7.216;2023-01-10T15:18:57;7.00;99.80
1129;DHT22;553;51.038;7.216;2023-01-10T15:21:24;6.90;99.90
1129;DHT22;553;51.038;7.216;2023-01-10T15:23:51;6.90;99.90
1129;DHT22;553;51.038;7.216;2023-01-10T15:26:19;7.00;99.90
1129;DHT22;553;51.038;7.216;2023-01-10T15:29:14;7.00;99.90
1129;DHT22;553;51.038;7.216;2023-01-10T15:31:44;7.00;99.90
1129;DHT22;553;51.038;7.216;2023-01-10T15:34:19;6.90;99.90
1129;DHT22;553;51.038;7.216;2023-01-10T15:36:52;6.90;99.90
1129;DHT22;553;51.038;7.216;2023-01-10T15:39:23;7.00;99.90
1129;DHT22;553;51.038;7.216;2023-01-10T15:41:56;7.00;99.90
1129;DHT22;553;51.038;7.216;2023-01-10T15:44:44;7.00;99.90
1129;DHT22;553;51.038;7.216;2023-01-10T15:50:23;7.00;99.90
1129;DHT22;553;51.038;7.216;2023-01-10T15:52:53;7.00;99.90
1129;DHT22;553;51.038;7.216;2023-01-10T15:58:18;7.00;99.90
1129;DHT22;553;51.038;7.216;2023-01-10T16:00:50;6.90;99.90
1129;DHT22;553;51.038;7.216;2023-01-10T16:03:22;7.00;99.90
1129;DHT22;553;51.038;7.216;2023-01-10T16:05:51;7.00;99.90
1129;DHT22;553;51.038;7.216;2023-01-10T16:08:22;7.00;99.90
1129;DHT22;553;51.038;7.216;2023-01-10T16:10:54;7.00;99.90
1129;DHT22;553;51.038;7.216;2023-01-10T16:13:21;6.90;99.90
1129;DHT22;553;51.038;7.216;2023-01-10T16:15:55;6.90;99.90
1129;DHT22;553;51.038;7.216;2023-01-10T16:18:22;7.00;99.90
1129;DHT22;553;51.038;7.216;2023-01-10T16:20:50;7.00;99.90
1129;DHT22;553;51.038;7.216;2023-01-10T16:23:22;7.00;99.90
1129;DHT22;553;51.038;7.216;2023-01-10T16:25:52;6.90;99.90
1129;DHT22;553;51.038;7.216;2023-01-10T16:28:20;7.00;99.90
1129;DHT22;553;51.038;7.216;2023-01-10T16:30:47;6.90;99.90
1129;DHT22;553;51.038;7.216;2023-01-10T16:33:19;7.00;99.90
1129;DHT22;553;51.038;7.216;2023-01-10T16:35:51;6.80;99.90
1129;DHT22;553;51.038;7.216;2023-01-10T16:38:18;6.80;99.90
1129;DHT22;553;51.038;7.216;2023-01-10T16:40:48;6.70;99.90
1129;DHT22;553;51.038;7.216;2023-01-10T16:43:15;6.70;99.90
1129;DHT22;553;51.038;7.216;2023-01-10T16:45:55;6.60;99.90
1129;DHT22;553;51.038;7.216;2023-01-10T16:48:30;6.60;99.90
1129;DHT22;553;51.038;7.216;2023-01-10T16:51:11;6.60;99.90
1129;DHT22;553;51.038;7.216;2023-01-10T16:53:38;6.50;99.90
1129;DHT22;553;51.038;7.216;2023-01-10T16:56:05;6.50;99.90
1129;DHT22;553;51.038;7.216;2023-01-10T16:58:32;6.50;99.90
1129;DHT22;553;51.038;7.216;2023-01-10T17:00:59;6.40;99.90
1129;DHT22;553;51.038;7.216;2023-01-10T17:03:27;6.50;99.90
1129;DHT22;553;51.038;7.216;2023-01-10T17:05:54;6.50;99.90
1129;DHT22;553;51.038;7.216;2023-01-10T17:08:23;6.50;99.90
1129;DHT22;553;51.038;7.216;2023-01-10T17:10:52;6.50;99.90
1129;DHT22;553;51.038;7.216;2023-01-10T17:13:37;6.40;99.90
1129;DHT22;553;51.038;7.216;2023-01-10T17:16:04;6.40;99.90
1129;DHT22;553;51.038;7.216;2023-01-10T17:18:31;6.40;99.90
1129;DHT22;553;51.038;7.216;2023-01-10T17:20:58;6.40;99.90
1129;DHT22;553;51.038;7.216;2023-01-10T17:23:25;6.30;99.90
1129;DHT22;553;51.038;7.216;2023-01-10T17:26:03;6.30;99.90
1129;DHT22;553;51.038;7.216;2023-01-10T17:28:31;6.30;99.90
1129;DHT22;553;51.038;7.216;2023-01-10T17:30:58;6.20;99.90
1129;DHT22;553;51.038;7.216;2023-01-10T17:33:25;6.20;99.90
1129;DHT22;553;51.038;7.216;2023-01-10T17:35:54;6.20;99.90
1129;DHT22;553;51.038;7.216;2023-01-10T17:38:22;6.20;99.90
1129;DHT22;553;51.038;7.216;2023-01-10T17:40:51;6.20;99.90
1129;DHT22;553;51.038;7.216;2023-01-10T17:43:19;6.20;99.90
1129;DHT22;553;51.038;7.216;2023-01-10T17:45:49;6.20;99.90
1129;DHT22;553;51.038;7.216;2023-01-10T17:48:17;6.20;99.90
1129;DHT22;553;51.038;7.216;2023-01-10T17:50:54;6.10;99.90
1129;DHT22;553;51.038;7.216;2023-01-10T17:53:21;6.20;99.90
1129;DHT22;553;51.038;7.216;2023-01-10T17:55:49;6.10;99.90
1129;DHT22;553;51.038;7.216;2023-01-10T17:58:17;6.20;99.90
1129;DHT22;553;51.038;7.216;2023-01-10T18:00:44;6.20;99.90
1129;DHT22;553;51.038;7.216;2023-01-10T18:03:12;6.20;99.90
1129;DHT22;553;51.038;7.216;2023-01-10T18:05:51;6.20;99.90
1129;DHT22;553;51.038;7.216;2023-01-10T18:08:19;6.10;99.90
1129;DHT22;553;51.038;7.216;2023-01-10T18:10:46;6.10;99.90